ADDS METAR Data INFO
IDs: Format: Raw Decoded Include TAF

Data at: 2117 UTC 19 Jul 2018

KRUQ 192055Z AUTO 11004KT 10SM BKN065 OVC085 29/16 A3003 RMK AO2 T02920163
KRUQ 192035Z AUTO 17003KT 10SM SCT065 OVC085 29/16 A3003 RMK AO2 T02920163
KRUQ 192015Z AUTO 11006KT 10SM BKN065 OVC085 29/16 A3003 RMK AO2 T02930158
KRUQ 191955Z AUTO 08003KT 10SM OVC065 29/16 A3004 RMK AO2 T02920156
KRUQ 191935Z AUTO 12006KT 10SM BKN065 BKN080 OVC095 29/16 A3005 RMK AO2 T02930155
KRUQ 191915Z AUTO 05004KT 10SM BKN065 OVC080 29/15 A3006 RMK AO2 T02930153
KRUQ 191855Z AUTO 11006KT 020V150 10SM SCT065 OVC080 30/16 A3006 RMK AO2 T03030158
KRUQ 191835Z AUTO 05004KT 10SM BKN080 BKN100 30/16 A3007 RMK AO2 T02950155
KRUQ 191815Z AUTO 00000KT 10SM SCT080 BKN100 30/15 A3007 RMK AO2 T02960152
KRUQ 191755Z AUTO 09003KT 10SM SCT110 30/15 A3007 RMK AO2 T02950148 10296 20222
KRUQ 191735Z AUTO 08006KT 10SM SCT110 29/15 A3007 RMK AO2 T02900146
KRUQ 191715Z AUTO 06005KT 10SM SCT120 28/14 A3007 RMK AO2 T02790143
KRUQ 191655Z AUTO 08007KT 10SM CLR 29/15 A3008 RMK AO2 T02850145
KRUQ 191635Z AUTO 07005KT 10SM SCT080 28/15 A3008 RMK AO2 T02790148
KRUQ 191615Z AUTO 08006G16KT 10SM BKN080 28/15 A3009 RMK AO2 T02760154
KRUQ 191555Z AUTO 08007KT 10SM OVC080 27/15 A3009 RMK AO2 T02730151
KRUQ 191535Z AUTO 08007KT 10SM BKN080 27/15 A3010 RMK AO2 T02720152
KRUQ 191515Z AUTO 12007KT 10SM SCT070 27/15 A3010 RMK AO2 T02730147
KRUQ 191455Z AUTO 06008G14KT 10SM SCT055 SCT070 27/15 A3010 RMK AO2 T02690151
KRUQ 191435Z AUTO 09006KT 10SM SCT055 26/15 A3010 RMK AO2 T02620147
KRUQ 191415Z AUTO 09006KT 10SM CLR 25/15 A3010 RMK AO2 T02530152
KRUQ 191355Z AUTO 11005KT 10SM CLR 25/16 A3010 RMK AO2 T02510160
KRUQ 191335Z AUTO 07004KT 10SM CLR 24/16 A3009 RMK AO2 T02440159
KRUQ 191315Z AUTO 08004KT 10SM SCT075 24/16 A3009 RMK AO2 T02360159
KRUQ 191255Z AUTO 05003KT 10SM BKN075 22/16 A3008 RMK AO2 T02230158
KRUQ 191235Z AUTO 05004KT 10SM BKN075 23/16 A3008 RMK AO2 T02250157
KRUQ 191215Z AUTO 06004KT 10SM SCT065 23/16 A3008 RMK AO2 T02260156
KRUQ 191155Z AUTO 05003KT 10SM SCT050 BKN065 22/16 A3008 RMK AO2 T02230158 10231 20185
KRUQ 191135Z AUTO 05003KT 10SM OVC050 22/16 A3007 RMK AO2 T02160163
KRUQ 191115Z AUTO 00000KT 10SM SCT050 20/17 A3006 RMK AO2 T02000170
KRUQ 191055Z AUTO 00000KT 10SM CLR 19/18 A3006 RMK AO2 T01890175
KRUQ 191035Z AUTO 00000KT 10SM SCT050 BKN070 20/17 A3005 RMK AO2 T01970170
KRUQ 191015Z AUTO 07003KT 10SM OVC070 20/17 A3004 RMK AO2 T02000172
KRUQ 190955Z AUTO 05003KT 10SM OVC070 20/18 A3003 RMK AO2 T01980180
KRUQ 190935Z AUTO 00000KT 10SM BKN055 OVC070 19/18 A3003 RMK AO2 T01930183
KRUQ 190915Z AUTO 00000KT 10SM BKN055 19/18 A3003 RMK AO2 T01880184
KRUQ 190855Z AUTO 00000KT 10SM SCT055 19/18 A3002 RMK AO2 T01850184
KRUQ 190835Z AUTO 00000KT 10SM SCT055 19/18 A3002 RMK AO2 T01910176
KRUQ 190815Z AUTO 04004KT 10SM SCT055 19/19 A3001 RMK AO2 T01900185
KRUQ 190755Z AUTO 00000KT 10SM CLR 20/18 A3001 RMK AO2 T01980177
KRUQ 190735Z AUTO 00000KT 10SM CLR 20/18 A3001 RMK AO2 T02010181
KRUQ 190715Z AUTO 00000KT 10SM CLR 20/18 A3001 RMK AO2 T01980182
KRUQ 190655Z AUTO 03003KT 10SM CLR 21/17 A3001 RMK AO2 T02130174
KRUQ 190635Z AUTO 00000KT 10SM SCT055 SCT100 23/17 A3002 RMK AO2 T02250173
KRUQ 190615Z AUTO 00000KT 10SM SCT055 SCT090 23/17 A3002 RMK AO2 T02280168
KRUQ 190555Z AUTO 10004KT 10SM SCT055 BKN090 23/17 A3002 RMK AO2 T02310168 10283 20211 403100202
KRUQ 190535Z AUTO 11004KT 10SM SCT055 OVC090 23/17 A3002 RMK AO2 T02320172
KRUQ 190515Z AUTO 10003KT 10SM SCT055 BKN090 24/18 A3002 RMK AO2 T02350175
KRUQ 190455Z AUTO 10004KT 10SM OVC090 24/18 A3002 RMK AO2 T02380175
KRUQ 190435Z AUTO 11004KT 10SM SCT080 OVC090 24/18 A3002 RMK AO2 T02400177
KRUQ 190415Z AUTO 10005KT 10SM SCT080 OVC090 24/18 A3001 RMK AO2 T02400182
KRUQ 190355Z AUTO 13004KT 10SM SCT080 OVC090 24/18 A3001 RMK AO2 T02430181
KRUQ 190335Z AUTO 00000KT 10SM OVC085 24/19 A3000 RMK AO2 T02420185
KRUQ 190315Z AUTO 00000KT 10SM OVC085 23/19 A2999 RMK AO2 T02340189
KRUQ 190255Z AUTO 00000KT 10SM BKN085 22/19 A2999 RMK AO2 T02230190
KRUQ 190235Z AUTO 08004KT 10SM SCT085 25/18 A2998 RMK AO2 T02450181
KRUQ 190215Z AUTO 07003KT 10SM BKN085 23/19 A2998 RMK AO2 T02330185
KRUQ 190155Z AUTO 00000KT 10SM OVC085 22/19 A2998 RMK AO2 T02190192
KRUQ 190135Z AUTO 00000KT 10SM BKN085 24/17 A2997 RMK AO2 T02430170
KRUQ 190115Z AUTO 00000KT 10SM SCT085 24/17 A2997 RMK AO2 T02380167
KRUQ 190055Z AUTO 00000KT 10SM CLR 24/17 A2996 RMK AO2 T02350170
KRUQ 190035Z AUTO 00000KT 10SM CLR 24/18 A2995 RMK AO2 T02350182
KRUQ 190015Z AUTO 36003KT 10SM CLR 26/18 A2995 RMK AO2 T02580182
KRUQ 182355Z AUTO 00000KT 10SM CLR 29/16 A2995 RMK AO2 T02850160 10310 20285
KRUQ 182335Z AUTO 03005KT 10SM CLR 30/15 A2995 RMK AO2 T02950151
KRUQ 182315Z AUTO 01003KT 10SM CLR 30/16 A2994 RMK AO2 T02950159
KRUQ 182255Z AUTO 04004KT 10SM CLR 30/16 A2994 RMK AO2 T03000162
KRUQ 182235Z AUTO 36003KT 10SM CLR 30/15 A2993 RMK AO2 T03020152
KRUQ 182215Z AUTO 03005KT 10SM SCT070 31/15 A2993 RMK AO2 T03070153
KRUQ 182155Z AUTO 01006KT 10SM SCT070 31/16 A2993 RMK AO2 T03070156
KRUQ 182135Z AUTO 33005KT 10SM CLR 31/16 A2993 RMK AO2 T03080159
KRUQ 182115Z AUTO 36003KT 10SM CLR 31/15 A2993 RMK AO2 T03070152
KRUQ 182055Z AUTO 30004KT 10SM CLR 31/16 A2993 RMK AO2 T03060157
KRUQ 182035Z AUTO 26003KT 10SM CLR 31/16 A2993 RMK AO2 T03060158
KRUQ 182015Z AUTO 31005KT 10SM CLR 31/17 A2994 RMK AO2 T03070168
KRUQ 181955Z AUTO 00000KT 10SM CLR 31/17 A2995 RMK AO2 T03070166
KRUQ 181935Z AUTO 00000KT 10SM CLR 30/16 A2995 RMK AO2 T03040163
KRUQ 181915Z AUTO 33003KT 10SM SCT055 30/17 A2996 RMK AO2 T03030174
KRUQ 181855Z AUTO 27003KT 10SM SCT049 SCT055 30/17 A2996 RMK AO2 T03010174
KRUQ 181835Z AUTO 29003KT 10SM SCT047 SCT055 SCT065 30/18 A2996 RMK AO2 T02970184
KRUQ 181815Z AUTO 03003KT 10SM BKN047 29/19 A2997 RMK AO2 T02870194
KRUQ 181755Z AUTO 19003KT 10SM CLR 29/19 A2997 RMK AO2 T02940187 10295 20225
KRUQ 181735Z AUTO 00000KT 10SM SCT042 SCT048 29/20 A2998 RMK AO2 T02880204
KRUQ 181715Z AUTO 05004KT 10SM BKN042 BKN050 28/19 A2999 RMK AO2 T02790194
KRUQ 181655Z AUTO 01004KT 10SM SCT042 BKN049 29/19 A2999 RMK AO2 T02900194
KRUQ 181635Z AUTO 35004KT 10SM SCT040 SCT047 BKN050 28/19 A3000 RMK AO2 T02770190
KRUQ 181615Z AUTO 04006KT 10SM BKN055 BKN070 28/19 A3000 RMK AO2 T02800190
KRUQ 181555Z AUTO 05006KT 10SM SCT035 BKN049 28/19 A3001 RMK AO2 T02810194
KRUQ 181535Z AUTO 03009KT 10SM SCT031 BKN049 28/19 A3001 RMK AO2 T02750193
KRUQ 181515Z AUTO 05008KT 10SM SCT031 BKN049 28/20 A3001 RMK AO2 T02750200
KRUQ 181455Z AUTO 02006KT 10SM BKN047 27/20 A3001 RMK AO2 T02650197
KRUQ 181430Z AUTO 36005KT 10SM CLR 26/20 A3001 RMK AO2 T02560197
KRUQ 181415Z AUTO 01003KT 10SM SCT050 25/19 A3001 RMK AO2 T02520194
KRUQ 181355Z AUTO 36006KT 10SM SCT041 BKN050 25/19 A3001 RMK AO2 T02500193
KRUQ 181335Z AUTO 01006KT 10SM SCT039 BKN046 24/19 A3001 RMK AO2 T02440194
KRUQ 181315Z AUTO 36003KT 10SM SCT046 24/20 A3001 RMK AO2 T02380199
KRUQ 181255Z AUTO 00000KT 10SM SCT095 23/20 A3000 RMK AO2 T02330199
KRUQ 181235Z AUTO 36005KT 10SM SCT095 23/20 A3000 RMK AO2 T02330201
KRUQ 181135Z AUTO 00000KT 10SM OVC095 21/21 A2997 RMK AO2 T02110211
KRUQ 181115Z AUTO 00000KT 10SM OVC095 21/21 A2997 RMK AO2 T02140209
KRUQ 181055Z AUTO 00000KT 7SM BKN095 20/20 A2996 RMK AO2 T02020202
KRUQ 181005Z AUTO 00000KT 10SM CLR 21/20 A2993 RMK AO2 T02120201
KRUQ 180920Z AUTO 00000KT 10SM CLR 21/21 A2992 RMK AO2 T02110207